Terminal Aerodrome Forecast
Issued by NWS Shreveport, LA

Home | Current Version | Previous Version | Text Only | Print | Product List | Glossary On
Versions: 1 2 3 4 5 6 7 8 9 10 11 12 13 14 15 16
713
FTUS44 KSHV 232342
TAFLFK
TAF
KLFK 232342Z 2400/2424 12004KT P6SM VCTS SCT050CB BKN100
     FM240300 VRB02KT P6SM BKN100 BKN250
     FM241200 05003KT 6SM BR BKN020 BKN150
     FM241600 08006KT P6SM VCTS BKN035CB BKN150
     FM242100 07008KT P6SM -TSRA BKN040CB BKN200=

USA.gov is the U.S. government's official web portal to all federal, state and local government web resources and services.